Time;durP1;ratioP1;P1;durP2;ratioP2;P2;SDS_P1;SDS_P2;PMS_P1;PMS_P2;Temp;Humidity;BMP_temperature;BMP_pressure;BME280_temperature;BME280_humidity;BME280_pressure;Samples;Min_cycle;Max_cycle;Signal;HPM_P1;HPM_P2
2022/09/29 00:01:33;;;;;;;0.00;0.00;;;;;;;;;;5116844;28;20487;-71
2022/09/29 00:04:00;;;;;;;0.00;0.00;;;;;;;;;;5097149;28;20498;-71
2022/09/29 00:06:26;;;;;;;0.00;0.00;;;;;;;;;;5085212;28;20024;-71
2022/09/29 00:08:53;;;;;;;0.10;0.10;;;;;;;;;;5107607;28;20091;-75
2022/09/29 00:11:19;;;;;;;0.00;0.00;;;;;;;;;;5081324;28;20169;-73
2022/09/29 00:13:49;;;;;;;0.10;0.10;;;;;;;;;;5095700;28;20149;-76
2022/09/29 00:16:16;;;;;;;0.00;0.00;;;;;;;;;;5098070;28;20025;-73
2022/09/29 00:18:42;;;;;;;0.00;0.00;;;;;;;;;;5080545;28;20052;-73
2022/09/29 00:21:10;;;;;;;0.00;0.00;;;;;;;;;;5107481;28;20024;-75
2022/09/29 00:23:37;;;;;;;0.80;0.80;;;;;;;;;;5109346;28;20362;-74
2022/09/29 00:26:03;;;;;;;0.00;0.00;;;;;;;;;;5105755;28;20373;-73
2022/09/29 00:28:30;;;;;;;0.00;0.00;;;;;;;;;;5110400;28;20051;-74
2022/09/29 00:31:00;;;;;;;0.00;0.00;;;;;;;;;;5109303;28;20096;-73
2022/09/29 00:33:31;;;;;;;0.00;0.00;;;;;;;;;;5091638;28;20035;-73
2022/09/29 00:35:59;;;;;;;0.00;0.00;;;;;;;;;;5115374;28;20452;-73
2022/09/29 00:38:26;;;;;;;0.00;0.00;;;;;;;;;;5115604;28;20024;-73
2022/09/29 00:40:52;;;;;;;0.00;0.00;;;;;;;;;;5115423;28;20035;-73
2022/09/29 00:43:24;;;;;;;0.00;0.00;;;;;;;;;;5097272;28;20027;-74
2022/09/29 00:45:53;;;;;;;0.00;0.00;;;;;;;;;;5116168;28;20262;-73
2022/09/29 00:48:24;;;;;;;0.00;0.00;;;;;;;;;;5116159;28;20058;-72
2022/09/29 00:50:52;;;;;;;0.28;0.28;;;;;;;;;;5115554;28;20106;-74
2022/09/29 00:53:20;;;;;;;0.00;0.00;;;;;;;;;;5097126;28;20028;-73
2022/09/29 00:55:49;;;;;;;0.85;0.85;;;;;;;;;;5091875;28;20475;-73
2022/09/29 00:58:22;;;;;;;0.00;0.00;;;;;;;;;;5065314;28;20078;-73
2022/09/29 01:00:48;;;;;;;0.00;0.00;;;;;;;;;;5061739;28;20115;-72
2022/09/29 01:03:18;;;;;;;0.10;0.10;;;;;;;;;;5071980;28;20032;-73
2022/09/29 01:05:51;;;;;;;0.00;0.00;;;;;;;;;;5068241;28;20029;-72
2022/09/29 01:08:23;;;;;;;0.00;0.00;;;;;;;;;;5073611;28;20040;-72
2022/09/29 01:10:50;;;;;;;0.43;0.28;;;;;;;;;;5098878;28;20025;-72
2022/09/29 01:13:17;;;;;;;0.00;0.00;;;;;;;;;;5103978;28;20021;-72
2022/09/29 01:15:43;;;;;;;1.77;1.67;;;;;;;;;;5082992;28;20095;-74
2022/09/29 01:18:10;;;;;;;2.50;1.88;;;;;;;;;;5113354;28;20035;-73
2022/09/29 01:20:45;;;;;;;17.08;5.40;;;;;;;;;;5111284;28;20020;-73
2022/09/29 01:23:17;;;;;;;8.35;7.78;;;;;;;;;;5088039;28;20028;-73
2022/09/29 01:25:50;;;;;;;0.00;0.00;;;;;;;;;;5067025;28;20020;-73
2022/09/29 01:28:28;;;;;;;0.00;0.00;;;;;;;;;;5081566;28;20017;-73
2022/09/29 01:30:57;;;;;;;1.77;1.63;;;;;;;;;;5078526;28;20029;-73
2022/09/29 01:33:27;;;;;;;0.00;0.00;;;;;;;;;;5087333;28;20074;-71
2022/09/29 01:36:06;;;;;;;0.00;0.00;;;;;;;;;;5090057;28;20112;-70
2022/09/29 01:38:35;;;;;;;0.00;0.00;;;;;;;;;;5058784;28;20032;-69
2022/09/29 01:41:16;;;;;;;0.55;0.55;;;;;;;;;;5095737;28;20452;-71
2022/09/29 01:43:52;;;;;;;0.10;0.10;;;;;;;;;;5107932;28;20028;-71
2022/09/29 01:46:21;;;;;;;0.45;0.45;;;;;;;;;;5105702;28;20102;-71
2022/09/29 01:48:50;;;;;;;0.00;0.00;;;;;;;;;;5106525;28;20043;-70
2022/09/29 01:51:18;;;;;;;0.00;0.00;;;;;;;;;;5095012;28;20103;-71
2022/09/29 01:53:50;;;;;;;0.00;0.00;;;;;;;;;;5083526;28;20031;-71
2022/09/29 01:56:18;;;;;;;0.00;0.00;;;;;;;;;;5083014;28;20024;-71
2022/09/29 01:58:49;;;;;;;0.00;0.00;;;;;;;;;;5105986;28;20066;-69
2022/09/29 02:01:16;;;;;;;2.72;2.63;;;;;;;;;;5102960;27;20020;-71
2022/09/29 02:03:55;;;;;;;0.00;0.00;;;;;;;;;;5119197;27;20091;-70
2022/09/29 02:06:23;;;;;;;0.38;0.28;;;;;;;;;;5103036;27;20051;-71
2022/09/29 02:08:56;;;;;;;0.00;0.00;;;;;;;;;;5083581;28;20056;-70
2022/09/29 02:11:22;;;;;;;0.00;0.00;;;;;;;;;;5085580;28;20028;-70
2022/09/29 02:13:53;;;;;;;0.20;0.10;;;;;;;;;;5108964;28;20028;-71
2022/09/29 02:16:23;;;;;;;0.25;0.25;;;;;;;;;;5089006;28;20047;-71
2022/09/29 02:19:04;;;;;;;0.75;0.55;;;;;;;;;;5106289;28;20366;-74
2022/09/29 02:21:31;;;;;;;0.00;0.00;;;;;;;;;;5113431;28;20028;-74
2022/09/29 02:23:57;;;;;;;4.03;3.72;;;;;;;;;;5097924;28;20099;-72
2022/09/29 02:26:25;;;;;;;0.00;0.00;;;;;;;;;;5106550;28;20051;-73
2022/09/29 02:28:52;;;;;;;0.55;0.20;;;;;;;;;;5107948;28;20073;-71
2022/09/29 02:31:19;;;;;;;0.00;0.00;;;;;;;;;;5090665;27;20111;-70
2022/09/29 02:33:46;;;;;;;0.45;0.45;;;;;;;;;;5112650;28;20027;-71
2022/09/29 02:36:32;;;;;;;0.17;0.17;;;;;;;;;;5110499;28;20099;-73
2022/09/29 02:39:06;;;;;;;0.00;0.00;;;;;;;;;;5084301;28;20032;-74
2022/09/29 02:41:39;;;;;;;1.85;1.80;;;;;;;;;;5089936;28;20044;-74
2022/09/29 02:44:24;;;;;;;1.92;1.75;;;;;;;;;;5108444;28;20047;-74
2022/09/29 02:46:56;;;;;;;0.30;0.30;;;;;;;;;;5082663;27;20118;-74
2022/09/29 02:49:28;;;;;;;3.58;2.83;;;;;;;;;;5107813;28;20022;-72
2022/09/29 02:52:00;;;;;;;4.35;4.13;;;;;;;;;;5089201;28;20028;-73
2022/09/29 02:54:33;;;;;;;0.90;0.90;;;;;;;;;;5077509;28;20030;-73
2022/09/29 02:57:19;;;;;;;0.00;0.00;;;;;;;;;;5097017;28;20401;-74
2022/09/29 02:59:51;;;;;;;0.10;0.10;;;;;;;;;;5100939;28;20102;-72
2022/09/29 03:02:27;;;;;;;1.13;0.98;;;;;;;;;;5098564;28;20470;-73
2022/09/29 03:04:55;;;;;;;0.85;0.68;;;;;;;;;;5085106;28;20110;-75
2022/09/29 03:07:22;;;;;;;0.25;0.25;;;;;;;;;;5085656;28;20039;-74
2022/09/29 03:09:48;;;;;;;0.85;0.85;;;;;;;;;;5106943;28;20115;-75
2022/09/29 03:12:16;;;;;;;0.00;0.00;;;;;;;;;;5089245;28;20122;-75
2022/09/29 03:14:42;;;;;;;0.00;0.00;;;;;;;;;;5105824;28;20047;-73
2022/09/29 03:17:09;;;;;;;0.00;0.00;;;;;;;;;;5085383;28;20111;-74
2022/09/29 03:19:35;;;;;;;2.13;1.95;;;;;;;;;;5099794;28;20062;-73
2022/09/29 03:22:02;;;;;;;0.00;0.00;;;;;;;;;;5101011;28;20043;-75
2022/09/29 03:24:30;;;;;;;0.00;0.00;;;;;;;;;;5087854;28;20016;-74
2022/09/29 03:26:57;;;;;;;0.00;0.00;;;;;;;;;;5106150;28;20028;-76
2022/09/29 03:29:23;;;;;;;0.30;0.30;;;;;;;;;;5108917;28;20020;-74
2022/09/29 03:31:49;;;;;;;0.45;0.43;;;;;;;;;;5096913;28;20016;-74
2022/09/29 03:34:16;;;;;;;0.00;0.00;;;;;;;;;;5101044;28;20134;-75
2022/09/29 03:36:42;;;;;;;0.00;0.00;;;;;;;;;;5100772;28;20205;-73
2022/09/29 03:39:09;;;;;;;0.00;0.00;;;;;;;;;;5082335;28;20044;-71
2022/09/29 03:41:35;;;;;;;0.00;0.00;;;;;;;;;;5091152;28;20508;-73
2022/09/29 03:44:01;;;;;;;0.60;0.60;;;;;;;;;;5094799;28;20125;-71
2022/09/29 03:46:28;;;;;;;0.00;0.00;;;;;;;;;;5101562;28;20085;-71
2022/09/29 03:48:54;;;;;;;0.00;0.00;;;;;;;;;;5107920;28;20532;-70
2022/09/29 03:51:21;;;;;;;0.38;0.38;;;;;;;;;;5106461;28;20020;-71
2022/09/29 03:53:47;;;;;;;0.00;0.00;;;;;;;;;;5093147;28;20085;-71
2022/09/29 03:56:14;;;;;;;0.00;0.00;;;;;;;;;;5103693;28;20051;-71
2022/09/29 03:58:40;;;;;;;3.08;2.83;;;;;;;;;;5107326;28;20092;-72
2022/09/29 04:01:06;;;;;;;0.28;0.28;;;;;;;;;;5092734;28;20106;-73
2022/09/29 04:03:33;;;;;;;0.43;0.28;;;;;;;;;;5115438;28;20357;-73
2022/09/29 04:05:59;;;;;;;7.03;5.47;;;;;;;;;;5103751;28;20443;-74
2022/09/29 04:08:26;;;;;;;0.13;0.13;;;;;;;;;;5100292;28;20427;-73
2022/09/29 04:10:52;;;;;;;0.00;0.00;;;;;;;;;;5110956;28;20027;-73
2022/09/29 04:13:20;;;;;;;0.00;0.00;;;;;;;;;;5105314;28;20051;-74
2022/09/29 04:15:47;;;;;;;0.00;0.00;;;;;;;;;;5111343;27;20054;-74
2022/09/29 04:18:14;;;;;;;0.00;0.00;;;;;;;;;;5095568;28;20389;-71
2022/09/29 04:20:40;;;;;;;0.00;0.00;;;;;;;;;;5115079;28;20034;-74
2022/09/29 04:23:07;;;;;;;0.00;0.00;;;;;;;;;;5086174;28;20027;-73
2022/09/29 04:25:33;;;;;;;0.00;0.00;;;;;;;;;;5102124;27;20020;-71
2022/09/29 04:28:00;;;;;;;0.00;0.00;;;;;;;;;;5104132;27;20027;-75
2022/09/29 04:30:27;;;;;;;0.00;0.00;;;;;;;;;;5103283;27;20474;-73
2022/09/29 04:32:53;;;;;;;0.35;0.35;;;;;;;;;;5098377;28;20473;-72
2022/09/29 04:35:19;;;;;;;2.60;1.15;;;;;;;;;;5092052;28;20070;-73
2022/09/29 04:37:46;;;;;;;0.65;0.45;;;;;;;;;;5102328;27;20085;-72
2022/09/29 04:40:12;;;;;;;0.00;0.00;;;;;;;;;;5105119;27;22661;-73
2022/09/29 04:42:38;;;;;;;0.70;0.70;;;;;;;;;;5084219;28;20066;-73
2022/09/29 04:45:05;;;;;;;0.00;0.00;;;;;;;;;;5098771;28;20537;-78
2022/09/29 04:47:31;;;;;;;0.43;0.43;;;;;;;;;;5099307;28;20077;-71
2022/09/29 04:49:58;;;;;;;0.00;0.00;;;;;;;;;;5077627;28;20020;-74
2022/09/29 04:52:24;;;;;;;0.13;0.13;;;;;;;;;;5102765;28;20027;-73
2022/09/29 04:54:51;;;;;;;0.10;0.10;;;;;;;;;;5108043;28;20020;-72
2022/09/29 04:57:17;;;;;;;0.00;0.00;;;;;;;;;;5100701;28;20031;-72
2022/09/29 04:59:43;;;;;;;0.10;0.10;;;;;;;;;;5100624;27;20503;-74
2022/09/29 05:02:10;;;;;;;0.00;0.00;;;;;;;;;;5110292;27;20019;-72
2022/09/29 05:04:36;;;;;;;1.95;1.20;;;;;;;;;;5094291;28;20031;-74
2022/09/29 05:07:02;;;;;;;0.10;0.10;;;;;;;;;;5103033;28;20493;-73
2022/09/29 05:09:29;;;;;;;0.35;0.32;;;;;;;;;;5105857;28;20020;-74
2022/09/29 05:11:55;;;;;;;1.63;1.30;;;;;;;;;;5107367;27;20324;-71
2022/09/29 05:14:22;;;;;;;0.40;0.40;;;;;;;;;;5101535;27;20034;-75
2022/09/29 05:16:48;;;;;;;0.38;0.38;;;;;;;;;;5090857;28;20151;-70
2022/09/29 05:19:20;;;;;;;2.40;1.98;;;;;;;;;;5107490;28;20097;-73
2022/09/29 05:21:47;;;;;;;0.10;0.10;;;;;;;;;;5103362;28;20032;-72
2022/09/29 05:24:13;;;;;;;0.00;0.00;;;;;;;;;;5107293;28;20425;-73
2022/09/29 05:26:43;;;;;;;0.00;0.00;;;;;;;;;;5084548;28;20052;-72
2022/09/29 05:29:09;;;;;;;0.00;0.00;;;;;;;;;;5100207;28;20404;-72
2022/09/29 05:31:35;;;;;;;6.47;0.90;;;;;;;;;;5086415;28;20031;-78
2022/09/29 05:34:02;;;;;;;0.85;0.85;;;;;;;;;;5080865;28;20028;-77
2022/09/29 05:36:28;;;;;;;2.72;1.55;;;;;;;;;;5084137;28;20043;-72
2022/09/29 05:38:55;;;;;;;0.00;0.00;;;;;;;;;;5100368;27;20027;-72
2022/09/29 05:41:22;;;;;;;0.00;0.00;;;;;;;;;;5103444;28;20043;-73
2022/09/29 05:43:49;;;;;;;4.57;1.05;;;;;;;;;;5100176;27;20062;-72
2022/09/29 05:46:15;;;;;;;0.00;0.00;;;;;;;;;;5083767;28;20054;-73
2022/09/29 05:48:45;;;;;;;0.00;0.00;;;;;;;;;;5106994;28;20429;-73
2022/09/29 05:51:13;;;;;;;0.00;0.00;;;;;;;;;;5113953;28;20023;-73
2022/09/29 05:53:43;;;;;;;0.00;0.00;;;;;;;;;;5098771;27;20470;-72
2022/09/29 05:56:13;;;;;;;0.03;0.00;;;;;;;;;;5103390;27;20111;-74
2022/09/29 05:58:40;;;;;;;0.22;0.17;;;;;;;;;;5100327;28;20023;-72
2022/09/29 06:01:10;;;;;;;1.08;1.02;;;;;;;;;;5101267;28;20036;-71
2022/09/29 06:03:37;;;;;;;0.00;0.00;;;;;;;;;;5098497;27;20121;-70
2022/09/29 06:06:11;;;;;;;2.05;0.25;;;;;;;;;;5102814;27;20428;-71
2022/09/29 06:08:38;;;;;;;0.75;0.75;;;;;;;;;;5101219;27;20024;-70
2022/09/29 06:11:08;;;;;;;0.00;0.00;;;;;;;;;;5099004;28;20059;-72
2022/09/29 06:13:37;;;;;;;0.00;0.00;;;;;;;;;;5104461;28;20032;-71
2022/09/29 06:16:03;;;;;;;0.22;0.22;;;;;;;;;;5101817;27;20062;-71
2022/09/29 06:18:30;;;;;;;0.00;0.00;;;;;;;;;;5104899;28;20051;-72
2022/09/29 06:21:04;;;;;;;0.00;0.00;;;;;;;;;;5103027;28;20056;-71
2022/09/29 06:23:30;;;;;;;0.00;0.00;;;;;;;;;;5099160;27;20027;-73
2022/09/29 06:25:57;;;;;;;0.00;0.00;;;;;;;;;;5097830;28;20102;-71
2022/09/29 06:28:24;;;;;;;0.00;0.00;;;;;;;;;;5101138;28;20016;-72
2022/09/29 06:30:51;;;;;;;0.32;0.32;;;;;;;;;;5101485;28;20050;-73
2022/09/29 06:33:19;;;;;;;1.63;1.52;;;;;;;;;;5106675;28;20016;-74
2022/09/29 06:38:31;;;;;;;0.00;0.00;;;;;;;;;;5102088;28;20546;-72
2022/09/29 06:40:58;;;;;;;0.00;0.00;;;;;;;;;;5106913;28;20047;-73
2022/09/29 06:43:24;;;;;;;0.00;0.00;;;;;;;;;;5086909;28;20127;-74
2022/09/29 06:45:51;;;;;;;0.55;0.55;;;;;;;;;;5109692;28;20015;-73
2022/09/29 06:48:17;;;;;;;0.47;0.20;;;;;;;;;;5095111;28;20106;-74
2022/09/29 06:50:44;;;;;;;2.40;1.42;;;;;;;;;;5103172;28;20024;-75
2022/09/29 06:53:10;;;;;;;0.10;0.10;;;;;;;;;;5082280;28;20024;-74
2022/09/29 06:55:37;;;;;;;0.03;0.03;;;;;;;;;;5115791;28;20031;-76
2022/09/29 06:58:09;;;;;;;0.30;0.20;;;;;;;;;;5103098;28;20027;-75
2022/09/29 07:00:40;;;;;;;2.55;1.25;;;;;;;;;;5118836;27;20016;-74
2022/09/29 07:03:07;;;;;;;0.10;0.10;;;;;;;;;;5092941;28;20044;-76
2022/09/29 07:05:34;;;;;;;0.00;0.00;;;;;;;;;;5104004;28;20170;-72
2022/09/29 07:08:02;;;;;;;0.00;0.00;;;;;;;;;;5101734;28;20028;-73
2022/09/29 07:10:29;;;;;;;1.50;1.40;;;;;;;;;;5101786;28;20047;-73
2022/09/29 07:12:55;;;;;;;0.00;0.00;;;;;;;;;;5101255;28;20071;-75
2022/09/29 07:15:21;;;;;;;0.10;0.10;;;;;;;;;;5108328;28;20028;-77
2022/09/29 07:17:51;;;;;;;0.00;0.00;;;;;;;;;;5101910;28;20112;-72
2022/09/29 07:20:18;;;;;;;0.30;0.30;;;;;;;;;;5099217;28;20039;-73
2022/09/29 07:22:46;;;;;;;0.25;0.15;;;;;;;;;;5101456;28;20154;-72
2022/09/29 07:25:13;;;;;;;2.38;2.28;;;;;;;;;;5096572;28;20107;-73
2022/09/29 07:27:39;;;;;;;0.00;0.00;;;;;;;;;;5094464;28;20028;-72
2022/09/29 07:30:06;;;;;;;0.25;0.25;;;;;;;;;;5104897;28;20123;-74
2022/09/29 07:32:32;;;;;;;0.32;0.28;;;;;;;;;;5096197;28;20110;-75
2022/09/29 07:34:59;;;;;;;0.30;0.30;;;;;;;;;;5107001;28;20498;-73
2022/09/29 07:37:26;;;;;;;0.70;0.68;;;;;;;;;;5083356;28;20069;-73
2022/09/29 07:39:53;;;;;;;0.47;0.20;;;;;;;;;;5097695;27;20063;-73
2022/09/29 07:42:20;;;;;;;0.00;0.00;;;;;;;;;;5076989;28;20494;-71
2022/09/29 07:44:47;;;;;;;0.00;0.00;;;;;;;;;;5079333;28;20028;-76
2022/09/29 07:47:13;;;;;;;0.00;0.00;;;;;;;;;;5078809;28;20021;-77
2022/09/29 07:49:44;;;;;;;0.20;0.20;;;;;;;;;;5067296;28;20462;-75
2022/09/29 07:52:10;;;;;;;0.00;0.00;;;;;;;;;;5094087;28;20043;-75
2022/09/29 07:54:36;;;;;;;3.58;1.20;;;;;;;;;;5088884;28;20024;-75
2022/09/29 07:57:02;;;;;;;0.47;0.47;;;;;;;;;;5060415;28;20102;-77
2022/09/29 07:59:29;;;;;;;0.28;0.20;;;;;;;;;;5079775;28;20024;-75
2022/09/29 08:01:56;;;;;;;0.00;0.00;;;;;;;;;;5090552;28;20028;-76
2022/09/29 08:04:22;;;;;;;7.07;6.78;;;;;;;;;;5071839;28;20054;-75
2022/09/29 08:06:48;;;;;;;0.20;0.20;;;;;;;;;;5082921;28;20052;-76
2022/09/29 08:09:15;;;;;;;0.17;0.13;;;;;;;;;;5084975;28;20449;-75
2022/09/29 08:11:42;;;;;;;0.00;0.00;;;;;;;;;;5086274;28;20378;-75
2022/09/29 08:14:09;;;;;;;1.83;0.60;;;;;;;;;;5080718;28;20024;-75
2022/09/29 08:16:35;;;;;;;0.00;0.00;;;;;;;;;;5088949;28;20487;-75
2022/09/29 08:19:03;;;;;;;0.00;0.00;;;;;;;;;;5078289;28;20036;-75
2022/09/29 08:21:30;;;;;;;0.32;0.32;;;;;;;;;;5095537;28;20032;-76
2022/09/29 08:23:57;;;;;;;0.00;0.00;;;;;;;;;;5090884;28;20019;-76
2022/09/29 08:26:26;;;;;;;0.00;0.00;;;;;;;;;;5101247;28;20094;-77
2022/09/29 08:28:52;;;;;;;0.13;0.13;;;;;;;;;;5092144;28;20032;-76
2022/09/29 08:31:20;;;;;;;0.10;0.10;;;;;;;;;;5081060;28;20099;-75
2022/09/29 08:33:48;;;;;;;0.82;0.63;;;;;;;;;;5082062;28;20024;-75
2022/09/29 08:36:15;;;;;;;0.00;0.00;;;;;;;;;;5099112;28;20167;-76
2022/09/29 08:38:51;;;;;;;0.00;0.00;;;;;;;;;;5085244;28;20059;-77
2022/09/29 08:41:31;;;;;;;0.00;0.00;;;;;;;;;;5101997;28;20044;-76
2022/09/29 08:44:00;;;;;;;0.00;0.00;;;;;;;;;;5110397;27;20066;-76
2022/09/29 08:46:32;;;;;;;0.17;0.17;;;;;;;;;;5105112;28;20032;-75
2022/09/29 08:48:59;;;;;;;0.00;0.00;;;;;;;;;;5087557;28;20028;-76
2022/09/29 08:51:26;;;;;;;0.00;0.00;;;;;;;;;;5110306;27;20047;-77
2022/09/29 08:53:56;;;;;;;0.03;0.03;;;;;;;;;;5113620;28;20065;-77
2022/09/29 08:56:24;;;;;;;0.00;0.00;;;;;;;;;;5105356;27;20015;-77
2022/09/29 08:58:51;;;;;;;0.00;0.00;;;;;;;;;;5117811;27;20028;-78
2022/09/29 09:01:17;;;;;;;0.20;0.15;;;;;;;;;;5102651;28;20032;-77
2022/09/29 09:04:02;;;;;;;0.00;0.00;;;;;;;;;;5109572;27;20089;-76
2022/09/29 09:06:36;;;;;;;0.57;0.57;;;;;;;;;;5115354;27;20019;-78
2022/09/29 09:09:02;;;;;;;0.00;0.00;;;;;;;;;;5097740;27;20061;-77
2022/09/29 09:11:37;;;;;;;0.30;0.25;;;;;;;;;;5111668;27;20024;-75
2022/09/29 09:14:06;;;;;;;0.00;0.00;;;;;;;;;;5093401;28;20054;-77
2022/09/29 09:16:37;;;;;;;0.40;0.17;;;;;;;;;;5099635;27;20054;-76
2022/09/29 09:19:09;;;;;;;0.00;0.00;;;;;;;;;;5104400;28;20054;-76
2022/09/29 09:21:43;;;;;;;0.00;0.00;;;;;;;;;;5102421;28;20020;-76
2022/09/29 09:24:20;;;;;;;0.00;0.00;;;;;;;;;;5098710;28;20145;-76
2022/09/29 09:26:46;;;;;;;0.00;0.00;;;;;;;;;;5108082;27;20016;-76
2022/09/29 09:29:28;;;;;;;1.85;1.17;;;;;;;;;;5102834;28;20627;-76
2022/09/29 09:32:00;;;;;;;0.00;0.00;;;;;;;;;;5105997;28;20020;-75
2022/09/29 09:34:40;;;;;;;0.10;0.10;;;;;;;;;;5098015;28;20020;-74
2022/09/29 09:37:13;;;;;;;0.00;0.00;;;;;;;;;;5090322;28;20046;-76
2022/09/29 09:39:43;;;;;;;3.72;1.00;;;;;;;;;;5084479;28;20050;-74
2022/09/29 09:42:14;;;;;;;0.40;0.40;;;;;;;;;;5102306;28;20028;-75
2022/09/29 09:45:20;;;;;;;0.20;0.10;;;;;;;;;;5102083;27;20059;-75
2022/09/29 09:47:48;;;;;;;0.00;0.00;;;;;;;;;;5056256;28;20025;-75
2022/09/29 09:50:16;;;;;;;0.30;0.30;;;;;;;;;;5029567;28;20608;-74
2022/09/29 09:52:51;;;;;;;9.75;0.38;;;;;;;;;;5075459;28;20081;-72
2022/09/29 09:55:24;;;;;;;0.00;0.00;;;;;;;;;;5102578;27;20019;-72
2022/09/29 09:57:57;;;;;;;0.20;0.10;;;;;;;;;;5105560;27;20020;-73
2022/09/29 10:00:26;;;;;;;0.28;0.22;;;;;;;;;;5089455;28;20023;-75
2022/09/29 10:02:54;;;;;;;0.00;0.00;;;;;;;;;;5105300;27;20019;-72
2022/09/29 10:05:23;;;;;;;0.00;0.00;;;;;;;;;;5105996;28;20085;-75
2022/09/29 10:07:50;;;;;;;0.00;0.00;;;;;;;;;;5099277;28;20027;-74
2022/09/29 10:10:20;;;;;;;0.00;0.00;;;;;;;;;;5104367;27;20023;-75
2022/09/29 10:12:49;;;;;;;0.10;0.10;;;;;;;;;;5103922;28;20027;-75
2022/09/29 10:15:28;;;;;;;1.55;0.45;;;;;;;;;;5088833;28;20070;-74
2022/09/29 10:18:01;;;;;;;0.55;0.52;;;;;;;;;;5091734;28;20431;-73
2022/09/29 10:20:32;;;;;;;1.30;0.32;;;;;;;;;;5107438;28;20024;-73
2022/09/29 10:23:17;;;;;;;0.00;0.00;;;;;;;;;;5105019;28;20055;-73
2022/09/29 10:25:50;;;;;;;0.00;0.00;;;;;;;;;;5103837;28;20073;-74
2022/09/29 10:28:18;;;;;;;0.05;0.05;;;;;;;;;;5092365;28;20020;-77
2022/09/29 10:30:45;;;;;;;3.70;0.40;;;;;;;;;;5102290;28;20103;-73
2022/09/29 10:33:16;;;;;;;0.00;0.00;;;;;;;;;;5102644;27;20095;-73
2022/09/29 10:35:44;;;;;;;0.00;0.00;;;;;;;;;;5100847;28;20046;-71
2022/09/29 10:38:17;;;;;;;0.15;0.10;;;;;;;;;;5103542;28;20080;-74
2022/09/29 10:41:03;;;;;;;0.00;0.00;;;;;;;;;;5104284;28;20115;-73
2022/09/29 10:43:37;;;;;;;0.00;0.00;;;;;;;;;;5108308;27;20098;-73
2022/09/29 10:46:05;;;;;;;0.00;0.00;;;;;;;;;;5089536;28;20047;-73
2022/09/29 10:48:32;;;;;;;0.00;0.00;;;;;;;;;;5085922;28;20030;-74
2022/09/29 10:51:02;;;;;;;1.02;0.38;;;;;;;;;;5101746;28;20028;-75
2022/09/29 10:53:33;;;;;;;0.00;0.00;;;;;;;;;;5101243;28;20028;-72
2022/09/29 10:56:01;;;;;;;0.00;0.00;;;;;;;;;;5102564;28;20115;-74
2022/09/29 10:58:29;;;;;;;0.00;0.00;;;;;;;;;;5101937;28;20506;-74
2022/09/29 11:01:06;;;;;;;0.38;0.38;;;;;;;;;;5083155;28;20094;-74
2022/09/29 11:03:33;;;;;;;0.00;0.00;;;;;;;;;;5108362;28;20055;-75
2022/09/29 11:06:04;;;;;;;2.08;1.85;;;;;;;;;;5091722;28;20020;-74
2022/09/29 11:08:31;;;;;;;0.55;0.55;;;;;;;;;;5089399;28;20020;-75
2022/09/29 11:11:05;;;;;;;0.00;0.00;;;;;;;;;;5088992;28;20031;-75
2022/09/29 11:13:39;;;;;;;0.00;0.00;;;;;;;;;;5101283;28;20082;-73
2022/09/29 11:16:16;;;;;;;0.00;0.00;;;;;;;;;;5101908;28;20047;-73
2022/09/29 11:18:44;;;;;;;0.10;0.10;;;;;;;;;;5103559;28;20032;-72
2022/09/29 11:21:10;;;;;;;0.03;0.03;;;;;;;;;;5114048;28;20423;-74
2022/09/29 11:23:41;;;;;;;0.00;0.00;;;;;;;;;;5106946;28;20038;-73
2022/09/29 11:26:23;;;;;;;0.70;0.20;;;;;;;;;;5100018;28;20477;-71
2022/09/29 11:29:00;;;;;;;0.00;0.00;;;;;;;;;;5092180;28;20028;-74
2022/09/29 11:31:32;;;;;;;0.10;0.10;;;;;;;;;;5070043;28;20542;-74
2022/09/29 11:33:58;;;;;;;0.10;0.10;;;;;;;;;;5090937;28;20028;-74
2022/09/29 11:36:31;;;;;;;7.97;1.75;;;;;;;;;;5074350;28;20047;-77
2022/09/29 11:39:03;;;;;;;0.00;0.00;;;;;;;;;;5097669;28;20026;-74
2022/09/29 11:41:55;;;;;;;0.00;0.00;;;;;;;;;;5090336;28;20036;-76
2022/09/29 11:44:34;;;;;;;0.00;0.00;;;;;;;;;;5081428;28;20108;-75
2022/09/29 11:47:13;;;;;;;0.65;0.38;;;;;;;;;;5095340;28;20030;-78
2022/09/29 11:50:02;;;;;;;0.52;0.52;;;;;;;;;;5082269;28;20111;-76
2022/09/29 11:52:38;;;;;;;0.08;0.08;;;;;;;;;;5088939;28;20385;-75
2022/09/29 11:55:05;;;;;;;0.17;0.17;;;;;;;;;;5091631;28;20027;-76
2022/09/29 11:57:34;;;;;;;0.47;0.47;;;;;;;;;;5083884;28;20023;-77
2022/09/29 12:00:06;;;;;;;0.50;0.30;;;;;;;;;;5088210;28;20042;-75
2022/09/29 12:02:48;;;;;;;0.00;0.00;;;;;;;;;;5090827;28;20074;-75
2022/09/29 12:05:17;;;;;;;0.10;0.10;;;;;;;;;;5094509;28;20141;-77
2022/09/29 12:07:50;;;;;;;0.00;0.00;;;;;;;;;;5100390;28;20024;-75
2022/09/29 12:10:31;;;;;;;0.00;0.00;;;;;;;;;;5106834;28;20065;-74
2022/09/29 12:13:04;;;;;;;0.10;0.10;;;;;;;;;;5104674;28;20034;-75
2022/09/29 12:15:31;;;;;;;0.00;0.00;;;;;;;;;;5091809;28;20035;-74
2022/09/29 12:18:01;;;;;;;0.00;0.00;;;;;;;;;;5110248;28;20481;-77
2022/09/29 12:20:33;;;;;;;0.00;0.00;;;;;;;;;;5115707;27;20027;-77
2022/09/29 12:23:04;;;;;;;0.00;0.00;;;;;;;;;;5109052;28;20080;-76
2022/09/29 12:25:33;;;;;;;0.00;0.00;;;;;;;;;;5105707;27;20024;-78
2022/09/29 12:28:05;;;;;;;0.00;0.00;;;;;;;;;;5093685;28;20015;-76
2022/09/29 12:30:46;;;;;;;0.00;0.00;;;;;;;;;;5112909;27;20058;-78
2022/09/29 12:33:16;;;;;;;0.00;0.00;;;;;;;;;;5093949;28;20031;-78
2022/09/29 12:35:46;;;;;;;0.08;0.08;;;;;;;;;;5114138;27;20542;-78
2022/09/29 12:38:18;;;;;;;0.00;0.00;;;;;;;;;;5092074;28;20039;-78
2022/09/29 12:40:48;;;;;;;0.00;0.00;;;;;;;;;;5108496;27;20040;-78
2022/09/29 12:43:21;;;;;;;0.00;0.00;;;;;;;;;;5123224;27;20031;-77
2022/09/29 12:46:00;;;;;;;0.00;0.00;;;;;;;;;;5133604;27;20031;-78
2022/09/29 12:48:40;;;;;;;1.20;1.20;;;;;;;;;;5127182;27;20027;-77
2022/09/29 12:51:08;;;;;;;0.00;0.00;;;;;;;;;;5128370;27;20014;-76
2022/09/29 12:53:38;;;;;;;0.00;0.00;;;;;;;;;;5102406;28;20020;-78
2022/09/29 12:56:14;;;;;;;0.00;0.00;;;;;;;;;;5090924;28;20052;-78
2022/09/29 12:58:44;;;;;;;0.00;0.00;;;;;;;;;;5088574;27;20080;-77
2022/09/29 13:01:13;;;;;;;0.00;0.00;;;;;;;;;;5099930;27;20024;-77
2022/09/29 13:03:43;;;;;;;0.00;0.00;;;;;;;;;;5104604;28;20032;-77
2022/09/29 13:06:21;;;;;;;0.00;0.00;;;;;;;;;;5112336;27;20022;-77
2022/09/29 13:08:56;;;;;;;0.00;0.00;;;;;;;;;;5100646;27;20019;-77
2022/09/29 13:11:38;;;;;;;0.00;0.00;;;;;;;;;;5122955;27;20062;-76
2022/09/29 13:14:17;;;;;;;0.00;0.00;;;;;;;;;;5104842;28;20025;-77
2022/09/29 13:16:47;;;;;;;0.08;0.08;;;;;;;;;;5103817;27;20167;-77
2022/09/29 13:19:38;;;;;;;0.00;0.00;;;;;;;;;;5126149;27;20481;-78
2022/09/29 13:22:28;;;;;;;0.00;0.00;;;;;;;;;;5064980;27;20049;-77
2022/09/29 13:25:18;;;;;;;0.00;0.00;;;;;;;;;;5133048;27;20027;-76
2022/09/29 13:27:46;;;;;;;0.00;0.00;;;;;;;;;;5118434;27;20367;-76
2022/09/29 13:30:13;;;;;;;0.00;0.00;;;;;;;;;;5117179;27;20024;-76
2022/09/29 13:32:42;;;;;;;0.00;0.00;;;;;;;;;;5116284;27;20443;-76
2022/09/29 13:35:16;;;;;;;0.00;0.00;;;;;;;;;;5093976;27;20032;-78
2022/09/29 13:37:45;;;;;;;0.00;0.00;;;;;;;;;;5113798;28;20035;-77
2022/09/29 13:40:19;;;;;;;0.00;0.00;;;;;;;;;;5095464;28;20035;-77
2022/09/29 13:42:47;;;;;;;0.00;0.00;;;;;;;;;;5091723;28;20032;-76
2022/09/29 13:45:14;;;;;;;0.00;0.00;;;;;;;;;;5097880;28;20481;-76
2022/09/29 13:47:45;;;;;;;0.00;0.00;;;;;;;;;;5101169;28;20032;-76
2022/09/29 13:50:30;;;;;;;0.00;0.00;;;;;;;;;;5068253;28;20028;-76
2022/09/29 13:53:16;;;;;;;0.00;0.00;;;;;;;;;;5092463;28;20656;-77
2022/09/29 13:55:48;;;;;;;0.00;0.00;;;;;;;;;;5095201;28;20043;-77
2022/09/29 13:58:30;;;;;;;0.00;0.00;;;;;;;;;;5077550;28;20497;-77
2022/09/29 14:00:59;;;;;;;0.00;0.00;;;;;;;;;;5109270;28;20107;-77
2022/09/29 14:03:44;;;;;;;0.00;0.00;;;;;;;;;;5096717;28;20034;-78
2022/09/29 14:06:18;;;;;;;0.00;0.00;;;;;;;;;;5080826;28;20394;-76
2022/09/29 14:08:50;;;;;;;0.28;0.28;;;;;;;;;;5099482;28;20437;-78
2022/09/29 14:11:31;;;;;;;0.20;0.20;;;;;;;;;;5103081;28;20016;-78
2022/09/29 14:13:58;;;;;;;0.00;0.00;;;;;;;;;;5098372;28;20032;-77
2022/09/29 14:16:31;;;;;;;0.00;0.00;;;;;;;;;;5104992;27;20401;-77
2022/09/29 14:19:05;;;;;;;0.00;0.00;;;;;;;;;;5110688;28;20417;-76
2022/09/29 14:21:49;;;;;;;0.00;0.00;;;;;;;;;;5099111;28;20034;-77
2022/09/29 14:24:41;;;;;;;0.00;0.00;;;;;;;;;;5094014;28;20028;-77
2022/09/29 14:27:28;;;;;;;0.00;0.00;;;;;;;;;;5087566;28;20055;-77
2022/09/29 14:30:03;;;;;;;0.00;0.00;;;;;;;;;;5100921;27;20487;-77
2022/09/29 14:32:39;;;;;;;0.00;0.00;;;;;;;;;;5134944;27;20026;-77
2022/09/29 14:35:14;;;;;;;0.10;0.05;;;;;;;;;;5124289;27;20390;-77
2022/09/29 14:37:40;;;;;;;0.00;0.00;;;;;;;;;;5134584;27;20098;-77
2022/09/29 14:43:06;;;;;;;0.00;0.00;;;;;;;;;;5103057;28;20160;-77
2022/09/29 14:54:41;;;;;;;0.00;0.00;;;;;;;;;;5108289;27;20046;-77
2022/09/29 14:57:18;;;;;;;0.00;0.00;;;;;;;;;;5093032;28;20038;-77
2022/09/29 14:59:53;;;;;;;0.10;0.10;;;;;;;;;;5117444;28;20039;-77
2022/09/29 15:02:27;;;;;;;0.00;0.00;;;;;;;;;;5113430;28;20023;-77
2022/09/29 15:04:54;;;;;;;0.08;0.08;;;;;;;;;;5116281;28;20026;-77
2022/09/29 15:07:22;;;;;;;0.00;0.00;;;;;;;;;;5112294;28;20537;-77
2022/09/29 15:09:52;;;;;;;0.00;0.00;;;;;;;;;;5089143;28;20092;-76
2022/09/29 15:12:25;;;;;;;0.00;0.00;;;;;;;;;;5090064;28;20032;-76
2022/09/29 15:14:52;;;;;;;0.52;0.32;;;;;;;;;;5104445;28;20062;-77
2022/09/29 15:17:30;;;;;;;0.00;0.00;;;;;;;;;;5106780;28;20023;-78